createdAt,value
2023-03-06T00:03:28.180Z,83.33
2023-03-06T00:08:31.413Z,83.10
2023-03-06T00:13:40.615Z,83.40
2023-03-06T00:18:44.128Z,83.39
2023-03-06T00:23:46.484Z,83.71
2023-03-06T00:28:49.277Z,83.52
2023-03-06T00:33:53.633Z,83.85
2023-03-06T00:38:56.133Z,84.09
2023-03-06T00:44:04.052Z,84.26
2023-03-06T00:49:10.525Z,84.71
2023-03-06T00:54:33.327Z,84.55
2023-03-06T00:59:35.924Z,84.70
2023-03-06T01:04:39.035Z,84.77
2023-03-06T01:09:41.296Z,84.70
2023-03-06T01:14:43.371Z,85.33
2023-03-06T01:19:45.446Z,85.24
2023-03-06T01:24:49.295Z,85.36
2023-03-06T01:29:51.733Z,85.19
2023-03-06T01:34:54.277Z,85.14
2023-03-06T01:39:56.440Z,85.63
2023-03-06T01:45:08.504Z,85.28
2023-03-06T01:50:12.743Z,85.77
2023-03-06T01:55:21.294Z,85.37
2023-03-06T02:00:29.651Z,85.90
2023-03-06T02:05:32.591Z,85.85
2023-03-06T02:10:35.140Z,85.61
2023-03-06T02:15:39.847Z,85.83
2023-03-06T02:21:20.409Z,85.36
2023-03-06T02:26:23.083Z,85.30
2023-03-06T02:31:28.984Z,85.42
2023-03-06T02:36:35.894Z,85.02
2023-03-06T02:41:38.276Z,84.99
2023-03-06T02:46:41.077Z,85.23
2023-03-06T02:51:43.909Z,85.04
2023-03-06T02:56:48.125Z,85.20
2023-03-06T03:01:50.597Z,85.28
2023-03-06T03:06:53.521Z,85.24
2023-03-06T03:11:55.703Z,85.28
2023-03-06T03:17:01.195Z,85.25
2023-03-06T03:22:03.384Z,84.96
2023-03-06T03:27:06.580Z,85.02
2023-03-06T03:32:09.908Z,85.50
2023-03-06T03:37:14.095Z,85.00
2023-03-06T03:42:17.582Z,85.26
2023-03-06T03:47:20.101Z,85.13
2023-03-06T03:52:23.153Z,85.21
2023-03-06T03:57:26.460Z,85.46
2023-03-06T04:02:29.338Z,85.43
2023-03-06T04:07:46.860Z,85.16
2023-03-06T04:12:49.519Z,85.24
2023-03-06T04:17:51.951Z,85.17
2023-03-06T04:22:56.850Z,85.19
2023-03-06T04:27:59.238Z,85.38
2023-03-06T04:33:03.506Z,85.33
2023-03-06T04:38:06.008Z,85.39
2023-03-06T04:43:09.244Z,85.32
2023-03-06T04:48:18.868Z,85.33
2023-03-06T04:53:22.473Z,85.75
2023-03-06T04:58:25.876Z,85.67
2023-03-06T05:03:28.388Z,85.77
2023-03-06T05:08:31.139Z,85.65
2023-03-06T05:13:33.755Z,85.78
2023-03-06T05:18:37.940Z,86.10
2023-03-06T05:23:40.446Z,86.34
2023-03-06T05:28:42.849Z,86.27
2023-03-06T05:33:44.865Z,86.30
2023-03-06T05:38:46.830Z,86.01
2023-03-06T05:43:49.717Z,86.08
2023-03-06T05:48:56.118Z,86.16
2023-03-06T05:53:58.520Z,86.42
2023-03-06T05:59:00.760Z,86.25
2023-03-06T06:04:03.277Z,86.17
2023-03-06T06:09:05.110Z,86.19
2023-03-06T06:14:07.204Z,86.40
2023-03-06T06:19:09.682Z,85.83
2023-03-06T06:24:11.895Z,86.10
2023-03-06T06:29:13.880Z,85.82
2023-03-06T06:34:17.052Z,85.67
2023-03-06T06:39:21.434Z,85.49
2023-03-06T06:44:23.815Z,85.12
2023-03-06T06:49:25.914Z,85.11
2023-03-06T06:54:28.404Z,85.11
2023-03-06T06:59:30.305Z,84.78
2023-03-06T07:04:32.255Z,84.34
2023-03-06T07:09:34.504Z,84.08
2023-03-06T07:14:37.233Z,83.80
2023-03-06T07:19:39.663Z,83.31
2023-03-06T07:24:41.847Z,83.01
2023-03-06T07:29:44.681Z,82.64
2023-03-06T07:34:47.207Z,82.22
2023-03-06T07:39:49.128Z,81.96
2023-03-06T07:44:52.862Z,81.69
2023-03-06T07:49:57.264Z,81.17
2023-03-06T07:54:59.866Z,81.21
2023-03-06T08:00:03.333Z,81.09
2023-03-06T08:05:16.688Z,80.54
2023-03-06T08:10:18.785Z,80.52
2023-03-06T08:15:20.922Z,80.33
2023-03-06T08:20:23.302Z,79.89
2023-03-06T08:25:25.247Z,79.48
2023-03-06T08:30:27.081Z,79.20
2023-03-06T08:35:28.981Z,78.78
2023-03-06T08:40:31.213Z,78.48
2023-03-06T08:45:33.200Z,78.06
2023-03-06T08:50:35.600Z,77.35
2023-03-06T08:55:38.427Z,77.04
2023-03-06T09:00:40.646Z,76.82
2023-03-06T09:05:42.707Z,77.08
2023-03-06T09:10:48.380Z,76.32
2023-03-06T09:15:54.463Z,76.22
2023-03-06T09:20:56.954Z,76.77
2023-03-06T09:26:00.352Z,76.89
2023-03-06T09:31:07.851Z,75.92
2023-03-06T09:36:18.966Z,75.53
2023-03-06T09:41:34.286Z,75.87
2023-03-06T09:47:14.619Z,75.74
2023-03-06T09:52:36.586Z,74.92
2023-03-06T09:57:42.833Z,75.49
2023-03-06T10:02:50.688Z,75.20
2023-03-06T10:08:05.754Z,75.02
2023-03-06T10:13:28.272Z,74.67
2023-03-06T10:18:30.450Z,74.82
2023-03-06T10:23:46.924Z,74.27
2023-03-06T10:29:14.719Z,73.00
2023-03-06T10:34:22.172Z,72.98
2023-03-06T10:39:24.065Z,72.06
2023-03-06T10:44:25.981Z,71.48
2023-03-06T10:49:36.610Z,70.92
2023-03-06T10:54:44.378Z,70.29
2023-03-06T10:59:58.586Z,70.29
2023-03-06T11:05:02.092Z,69.22
2023-03-06T11:10:19.008Z,69.38
2023-03-06T11:15:22.556Z,69.15
2023-03-06T11:20:24.834Z,68.54
2023-03-06T11:25:34.503Z,68.44
2023-03-06T11:30:43.904Z,68.40
2023-03-06T11:35:52.115Z,67.97
2023-03-06T11:40:59.002Z,68.62
2023-03-06T11:46:25.229Z,68.28
2023-03-06T11:51:33.286Z,68.24
2023-03-06T11:56:38.391Z,67.68
2023-03-06T12:02:00.624Z,67.52
2023-03-06T12:07:21.548Z,66.72
2023-03-06T12:12:46.423Z,66.36
2023-03-06T12:18:16.370Z,65.96
2023-03-06T12:23:39.129Z,65.99
2023-03-06T12:29:07.411Z,65.92
2023-03-06T12:34:34.109Z,66.46
2023-03-06T12:40:13.744Z,66.28
2023-03-06T12:45:39.642Z,65.83
2023-03-06T12:50:45.623Z,66.17
2023-03-06T12:55:50.303Z,65.84
2023-03-06T13:01:16.775Z,66.54
2023-03-06T13:06:50.887Z,67.69
2023-03-06T13:12:05.985Z,67.42
2023-03-06T13:17:25.465Z,68.14
2023-03-06T13:22:29.712Z,66.56
2023-03-06T13:27:54.805Z,64.33
2023-03-06T13:32:57.424Z,62.84
2023-03-06T13:38:00.436Z,63.09
2023-03-06T13:43:08.088Z,62.82
2023-03-06T13:48:47.713Z,62.80
2023-03-06T13:54:26.281Z,63.12
2023-03-06T13:59:37.199Z,61.99
2023-03-06T14:04:47.428Z,61.36
2023-03-06T14:10:11.045Z,62.68
2023-03-06T14:15:31.727Z,64.62
2023-03-06T14:20:40.539Z,66.53
2023-03-06T14:25:45.312Z,67.74
2023-03-06T14:30:53.688Z,68.58
2023-03-06T14:35:59.679Z,69.34
2023-03-06T14:41:03.342Z,69.93
2023-03-06T14:46:06.960Z,70.49
2023-03-06T14:51:17.025Z,70.93
2023-03-06T14:56:25.831Z,71.03
2023-03-06T15:01:38.511Z,71.16
2023-03-06T15:06:43.725Z,71.38
2023-03-06T15:11:57.905Z,71.46
2023-03-06T15:17:18.429Z,71.45
2023-03-06T15:22:31.624Z,71.88
2023-03-06T15:27:33.719Z,71.57
2023-03-06T15:32:42.877Z,71.66
2023-03-06T15:37:44.974Z,71.71
2023-03-06T15:42:47.382Z,72.14
2023-03-06T15:47:52.095Z,72.43
2023-03-06T15:52:54.174Z,72.77
2023-03-06T15:58:02.244Z,73.07
2023-03-06T16:03:05.040Z,73.16
2023-03-06T16:08:07.526Z,73.14
2023-03-06T16:13:22.401Z,73.16
2023-03-06T16:18:25.115Z,73.14
2023-03-06T16:23:27.078Z,73.01
2023-03-06T16:28:29.049Z,73.07
2023-03-06T16:33:30.993Z,73.04
2023-03-06T16:38:32.937Z,73.16
2023-03-06T16:43:35.563Z,73.13
2023-03-06T16:48:37.799Z,73.26
2023-03-06T16:53:39.930Z,73.39
2023-03-06T16:58:45.490Z,73.61
2023-03-06T17:03:47.972Z,73.80
2023-03-06T17:08:51.057Z,73.82
2023-03-06T17:13:54.835Z,74.00
2023-03-06T17:18:58.288Z,73.94
2023-03-06T17:24:02.502Z,73.77
2023-03-06T17:29:07.009Z,73.62
2023-03-06T17:34:09.446Z,73.69
2023-03-06T17:39:12.949Z,73.54
2023-03-06T17:44:16.973Z,73.60
2023-03-06T17:49:21.645Z,73.55
2023-03-06T17:54:30.075Z,73.39
2023-03-06T17:59:36.297Z,72.75
2023-03-06T18:04:38.597Z,72.84
2023-03-06T18:09:42.878Z,72.67
2023-03-06T18:14:45.579Z,72.67
2023-03-06T18:19:48.182Z,72.59
2023-03-06T18:24:51.081Z,72.74
2023-03-06T18:29:55.550Z,72.74
2023-03-06T18:34:58.309Z,72.79
2023-03-06T18:40:00.835Z,72.79
2023-03-06T18:45:03.367Z,72.97
2023-03-06T18:50:06.832Z,73.07
2023-03-06T18:55:10.364Z,73.04
2023-03-06T19:00:22.472Z,73.04
2023-03-06T19:05:24.563Z,73.21
2023-03-06T19:10:27.064Z,73.36
2023-03-06T19:15:30.265Z,73.53
2023-03-06T19:20:33.020Z,73.55
2023-03-06T19:25:35.821Z,73.70
2023-03-06T19:30:40.925Z,73.85
2023-03-06T19:35:43.430Z,74.07
2023-03-06T19:40:51.967Z,74.33
2023-03-06T19:45:55.218Z,74.75
2023-03-06T19:50:57.196Z,74.81
2023-03-06T19:56:21.530Z,75.30
2023-03-06T20:01:26.696Z,75.45
2023-03-06T20:06:33.760Z,75.73
2023-03-06T20:11:35.977Z,75.71
2023-03-06T20:16:39.549Z,76.01
2023-03-06T20:21:42.712Z,76.39
2023-03-06T20:26:46.824Z,76.41
2023-03-06T20:31:49.454Z,76.70
2023-03-06T20:36:51.510Z,76.71
2023-03-06T20:41:54.975Z,76.88
2023-03-06T20:46:57.088Z,77.14
2023-03-06T20:51:59.156Z,77.31
2023-03-06T20:57:01.405Z,77.55
2023-03-06T21:02:04.142Z,77.75
2023-03-06T21:07:07.085Z,77.73
2023-03-06T21:12:09.413Z,77.75
2023-03-06T21:17:13.843Z,78.23
2023-03-06T21:22:17.189Z,78.15
2023-03-06T21:27:19.559Z,78.39
2023-03-06T21:32:21.716Z,78.50
2023-03-06T21:37:23.739Z,78.58
2023-03-06T21:42:26.253Z,78.85
2023-03-06T21:47:28.545Z,79.16
2023-03-06T21:52:30.574Z,79.13
2023-03-06T21:57:32.798Z,79.26
2023-03-06T22:02:35.552Z,79.51
2023-03-06T22:07:38.269Z,79.41
2023-03-06T22:12:41.989Z,79.74
2023-03-06T22:17:48.723Z,79.42
2023-03-06T22:22:51.005Z,79.42
2023-03-06T22:27:53.130Z,79.79
2023-03-06T22:32:57.118Z,80.02
2023-03-06T22:37:59.668Z,79.96
2023-03-06T22:43:02.646Z,80.26
2023-03-06T22:48:11.171Z,80.11
2023-03-06T22:53:20.957Z,80.22
2023-03-06T22:58:23.270Z,80.10
2023-03-06T23:03:25.189Z,80.21
2023-03-06T23:08:27.200Z,80.06
2023-03-06T23:13:29.118Z,80.28
2023-03-06T23:18:52.461Z,80.09
2023-03-06T23:24:12.958Z,80.09
2023-03-06T23:29:16.358Z,80.30
2023-03-06T23:34:18.401Z,80.27
2023-03-06T23:39:21.374Z,80.17
2023-03-06T23:44:23.242Z,79.99
2023-03-06T23:49:25.192Z,80.03
2023-03-06T23:54:27.179Z,80.03
2023-03-06T23:59:29.493Z,80.04
